Briefing drone pour Saint-donat-sur-l'herbasse

Rechercher une autre localisation

Conditions de vol :


Nous sommes le : Dimanche 24 octobre 2021
Il est 23:52 UTC (01:52 LT)

Lever de soleil : 05:41 UTC (07:41 LT)
Coucher de soleil : 17:06 UTC (19:06 LT)

Météo

L'essentiel des conditions de vol

VIGILANCE MÉTÉO FRANCE - Drôme (26)
Pas de vigilances particulieres
CARTE TEMSI
CARTES DES FRONTS
METAR de LFLU
LFLU 231800Z AUTO 03005KT CAVOK 09/04 Q1024

Date d'émission: 23/10/2021
Heure d'émission: 18:00 UTC
Vent: 030° pour 5 KT (9 km/h)
Visibilité horizontale: > 10 km
Plafond : Plafond et visibilité OK (CAVOK)
Température: 9 °C
Point de rosée: 4 °C
Humidité: 71%
Pression (QNH): 1024 hPa
Prévision 24h pour Valence (14 km)
Vent : 145° pour 1 KT (5 km/h)
Temperature Maxi: 12 °C
Temperature Min: 12 °C
Humidité : 67%
Condition : Ciel dégagé



Warning: count(): Parameter must be an array or an object that implements Countable in /homepages/6/d509196549/htdocs/droneoxygene/briefing.php on line 743
WEBCAM POUR SAINT-DONAT-SUR-L'HERBASSE

Réglementation

Voler en sécurité

CARTES AERONAUTIQUE 1/500.000
CARTES VAC (LFLU)
SUP AIP




Chargement des AIP...
NOTAM (SAINT-DONAT-SUR-L'HERBASSE + Terrain à proximité / FIR )




Chargement des NOTAMS...
CONTACT PREFECTURE 26
Drôme (26) : ddt-satem@drome.gouv.fr


Avertissement : Les données mises à disposition sont indicatives. Oxygène Drone ne pourra être tenu responsable de dégâts causés aux biens et aux personnes.